createdAt,value
2019-02-12T00:02:59.532Z,13.08
2019-02-12T00:05:25.298Z,12.93
2019-02-12T00:07:51.063Z,11.10
2019-02-12T00:10:16.832Z,11.33
2019-02-12T00:12:42.612Z,9.03
2019-02-12T00:15:08.363Z,7.27
2019-02-12T00:17:34.123Z,8.53
2019-02-12T00:19:59.911Z,6.97
2019-02-12T00:22:25.662Z,9.50
2019-02-12T00:24:51.422Z,12.33
2019-02-12T00:27:17.183Z,5.30
2019-02-12T00:29:42.952Z,13.83
2019-02-12T00:32:08.731Z,9.03
2019-02-12T00:34:34.479Z,10.03
2019-02-12T00:37:00.237Z,10.53
2019-02-12T00:39:25.983Z,10.07
2019-02-12T00:41:51.742Z,9.80
2019-02-12T00:44:17.492Z,10.10
2019-02-12T00:46:43.257Z,8.50
2019-02-12T00:49:09.012Z,9.40
2019-02-12T00:51:34.779Z,7.67
2019-02-12T00:54:00.541Z,9.33
2019-02-12T00:56:26.301Z,9.47
2019-02-12T00:58:52.049Z,6.13
2019-02-12T01:01:17.822Z,6.23
2019-02-12T01:03:43.595Z,10.53
2019-02-12T01:06:09.330Z,7.07
2019-02-12T01:08:35.081Z,8.27
2019-02-12T01:11:00.853Z,7.60
2019-02-12T01:13:26.701Z,5.97
2019-02-12T01:15:52.474Z,5.77
2019-02-12T01:18:18.232Z,5.47
2019-02-12T01:20:43.985Z,7.53
2019-02-12T01:23:09.761Z,6.80
2019-02-12T01:25:35.509Z,6.73
2019-02-12T01:28:01.287Z,9.17
2019-02-12T01:30:27.044Z,7.63
2019-02-12T01:32:52.806Z,3.67
2019-02-12T01:35:18.568Z,7.40
2019-02-12T01:37:44.335Z,6.13
2019-02-12T01:40:51.763Z,6.93
2019-02-12T01:43:17.532Z,7.87
2019-02-12T01:45:43.297Z,7.20
2019-02-12T01:48:09.066Z,13.43
2019-02-12T01:50:34.843Z,5.83
2019-02-12T01:53:00.606Z,8.37
2019-02-12T01:55:26.357Z,7.53
2019-02-12T01:57:52.134Z,9.00
2019-02-12T02:00:17.896Z,8.33
2019-02-12T02:02:43.807Z,9.53
2019-02-12T02:05:09.507Z,10.57
2019-02-12T02:07:35.264Z,7.37
2019-02-12T02:10:01.014Z,7.10
2019-02-12T02:12:26.787Z,11.17
2019-02-12T02:14:52.545Z,11.03
2019-02-12T02:17:18.313Z,8.63
2019-02-12T02:19:44.074Z,11.47
2019-02-12T02:22:09.839Z,7.40
2019-02-12T02:24:35.591Z,14.53
2019-02-12T02:27:01.360Z,7.23
2019-02-12T02:29:27.139Z,9.50
2019-02-12T02:31:52.902Z,9.97
2019-02-12T02:34:18.645Z,10.13
2019-02-12T02:36:44.429Z,8.33
2019-02-12T02:39:10.183Z,10.77
2019-02-12T02:41:35.934Z,8.80
2019-02-12T02:44:01.705Z,8.37
2019-02-12T02:46:27.450Z,12.63
2019-02-12T02:48:53.222Z,11.43
2019-02-12T02:51:19.012Z,14.50
2019-02-12T02:53:44.772Z,13.67
2019-02-12T02:56:10.528Z,11.90
2019-02-12T02:58:36.295Z,11.53
2019-02-12T03:01:02.151Z,10.13
2019-02-12T03:03:27.917Z,10.57
2019-02-12T03:05:53.680Z,10.20
2019-02-12T03:08:19.449Z,14.27
2019-02-12T03:10:45.197Z,11.10
2019-02-12T03:13:10.959Z,9.47
2019-02-12T03:15:36.712Z,8.73
2019-02-12T03:18:02.482Z,8.93
2019-02-12T03:20:28.228Z,10.40
2019-02-12T03:22:53.994Z,13.17
2019-02-12T03:25:19.750Z,6.50
2019-02-12T03:27:45.515Z,7.73
2019-02-12T03:33:18.514Z,8.28
2019-02-12T03:35:44.295Z,12.07
2019-02-12T03:38:10.035Z,7.37
2019-02-12T03:40:35.786Z,8.90
2019-02-12T03:43:01.553Z,8.80
2019-02-12T03:45:27.319Z,10.53
2019-02-12T03:47:53.077Z,6.10
2019-02-12T03:50:18.833Z,10.67
2019-02-12T03:52:44.620Z,8.57
2019-02-12T03:55:52.078Z,11.03
2019-02-12T03:58:17.841Z,9.80
2019-02-12T04:00:43.604Z,8.33
2019-02-12T04:03:09.459Z,6.90
2019-02-12T04:09:02.286Z,6.58
2019-02-12T04:11:28.041Z,13.23
2019-02-12T04:13:53.797Z,9.30
2019-02-12T04:16:19.550Z,14.20
2019-02-12T04:18:45.317Z,10.90
2019-02-12T04:21:11.072Z,10.97
2019-02-12T04:23:36.843Z,11.07
2019-02-12T04:26:22.496Z,8.30
2019-02-12T04:28:48.269Z,10.50
2019-02-12T04:31:14.020Z,12.17
2019-02-12T04:33:39.793Z,12.00
2019-02-12T04:36:05.543Z,11.97
2019-02-12T04:38:31.306Z,11.70
2019-02-12T04:40:57.066Z,10.57
2019-02-12T04:43:22.821Z,14.13
2019-02-12T04:45:48.608Z,10.93
2019-02-12T04:48:34.258Z,11.40
2019-02-12T04:51:00.045Z,13.20
2019-02-12T04:53:25.792Z,10.67
2019-02-12T04:55:51.558Z,11.80
2019-02-12T04:58:17.399Z,12.20
2019-02-12T05:00:43.158Z,14.03
2019-02-12T05:03:08.930Z,11.83
2019-02-12T05:05:34.698Z,18.50
2019-02-12T05:08:00.466Z,15.03
2019-02-12T05:11:07.907Z,13.67
2019-02-12T05:13:33.652Z,12.73
2019-02-12T05:15:59.438Z,13.30
2019-02-12T05:18:25.197Z,9.90
2019-02-12T05:20:50.942Z,15.87
2019-02-12T05:23:16.696Z,9.70
2019-02-12T05:25:42.474Z,11.03
2019-02-12T05:28:08.226Z,12.87
2019-02-12T05:30:34.025Z,10.57
2019-02-12T05:32:59.797Z,14.10
2019-02-12T05:35:25.576Z,11.07
2019-02-12T05:37:51.321Z,15.30
2019-02-12T05:40:17.121Z,12.63
2019-02-12T05:42:42.866Z,10.70
2019-02-12T05:45:28.513Z,15.63
2019-02-12T05:47:54.267Z,12.13
2019-02-12T05:50:20.057Z,14.33
2019-02-12T05:52:54.014Z,13.97
2019-02-12T05:55:13.514Z,15.72
2019-02-12T05:57:39.300Z,11.87
2019-02-12T06:00:46.732Z,11.93
2019-02-12T06:03:12.515Z,17.50
2019-02-12T06:05:38.273Z,12.53
2019-02-12T06:08:04.061Z,16.77
2019-02-12T06:10:29.819Z,9.90
2019-02-12T06:12:55.569Z,12.80
2019-02-12T06:15:21.360Z,12.17
2019-02-12T06:17:47.076Z,12.00
2019-02-12T06:20:12.858Z,11.63
2019-02-12T06:22:38.605Z,15.97
2019-02-12T06:28:18.226Z,15.32
2019-02-12T06:30:44.142Z,11.70
2019-02-12T06:33:09.854Z,10.97
2019-02-12T06:35:35.622Z,16.00
2019-02-12T06:38:01.369Z,15.07
2019-02-12T06:40:27.169Z,10.73
2019-02-12T06:42:52.946Z,10.07
2019-02-12T06:45:18.694Z,13.40
2019-02-12T06:47:44.459Z,17.37
2019-02-12T06:50:51.917Z,14.07
2019-02-12T06:53:17.675Z,9.98
2019-02-12T06:55:43.458Z,13.17
2019-02-12T06:58:09.212Z,10.73
2019-02-12T07:00:34.992Z,13.47
2019-02-12T07:03:21.024Z,14.70
2019-02-12T07:06:28.486Z,12.30
2019-02-12T07:09:35.919Z,17.10
2019-02-12T07:13:03.261Z,10.80
2019-02-12T07:15:29.107Z,13.28
2019-02-12T07:18:34.675Z,11.37
2019-02-12T07:21:42.123Z,12.40
2019-02-12T07:24:49.571Z,14.93
2019-02-12T07:31:10.812Z,13.13
2019-02-12T07:34:16.364Z,13.25
2019-02-12T07:37:23.794Z,11.22
2019-02-12T07:40:29.335Z,13.62
2019-02-12T07:43:36.778Z,18.25
2019-02-12T07:47:02.200Z,16.62
2019-02-12T07:50:28.363Z,16.00
2019-02-12T07:53:35.803Z,20.65
2019-02-12T07:56:43.263Z,16.27
2019-02-12T07:59:50.706Z,16.82
2019-02-12T08:02:58.157Z,15.72
2019-02-12T08:06:05.589Z,13.18
2019-02-12T08:09:13.023Z,11.30
2019-02-12T08:12:18.584Z,14.40
2019-02-12T08:18:39.915Z,14.83
2019-02-12T08:21:47.340Z,15.35
2019-02-12T08:25:12.795Z,15.70
2019-02-12T08:28:20.229Z,16.85
2019-02-12T08:31:27.681Z,16.42
2019-02-12T08:37:48.796Z,13.28
2019-02-12T08:41:14.276Z,8.73
2019-02-12T08:44:19.821Z,14.20
2019-02-12T08:47:45.341Z,20.55
2019-02-12T09:00:34.270Z,13.78
2019-02-12T09:03:39.895Z,11.50
2019-02-12T09:07:05.470Z,10.30
2019-02-12T09:10:11.073Z,13.35
2019-02-12T09:13:36.522Z,12.90
2019-02-12T09:16:42.121Z,13.40
2019-02-12T09:19:48.458Z,11.25
2019-02-12T09:22:54.003Z,15.10
2019-02-12T09:26:02.297Z,10.17
2019-02-12T09:32:36.877Z,11.77
2019-02-12T09:35:42.437Z,12.98
2019-02-12T09:39:07.870Z,12.98
2019-02-12T09:42:33.363Z,8.68
2019-02-12T09:45:40.883Z,15.08
2019-02-12T09:48:46.463Z,13.60
2019-02-12T09:55:06.168Z,8.70
2019-02-12T09:58:11.779Z,14.93
2019-02-12T10:01:19.254Z,13.00
2019-02-12T10:04:24.868Z,12.05
2019-02-12T10:10:45.523Z,13.30
2019-02-12T10:13:51.187Z,11.93
2019-02-12T10:16:58.689Z,10.33
2019-02-12T10:23:33.959Z,16.67
2019-02-12T10:29:55.143Z,13.27
2019-02-12T10:32:20.738Z,11.63
2019-02-12T10:34:46.528Z,9.10
2019-02-12T10:37:12.319Z,10.83
2019-02-12T10:39:58.015Z,10.53
2019-02-12T10:42:23.834Z,10.53
2019-02-12T10:44:49.630Z,12.60
2019-02-12T10:47:15.467Z,12.03
2019-02-12T10:49:41.324Z,11.67
2019-02-12T10:52:07.445Z,10.47
2019-02-12T10:54:33.331Z,13.00
2019-02-12T10:56:59.113Z,13.03
2019-02-12T10:59:24.881Z,14.27
2019-02-12T11:01:50.688Z,12.00
2019-02-12T11:04:16.472Z,9.80
2019-02-12T11:06:42.258Z,11.43
2019-02-12T11:09:49.745Z,13.40
2019-02-12T11:12:15.635Z,11.47
2019-02-12T11:14:41.472Z,12.63
2019-02-12T11:17:07.384Z,12.30
2019-02-12T11:19:33.151Z,12.17
2019-02-12T11:21:58.961Z,9.33
2019-02-12T11:24:24.777Z,7.50
2019-02-12T11:26:50.601Z,11.73
2019-02-12T11:29:16.414Z,11.13
2019-02-12T11:31:42.211Z,10.57
2019-02-12T11:34:08.019Z,13.00
2019-02-12T11:36:33.829Z,12.80
2019-02-12T11:38:59.657Z,10.83
2019-02-12T11:41:25.419Z,12.40
2019-02-12T11:43:51.300Z,10.97
2019-02-12T11:46:17.090Z,13.53
2019-02-12T11:48:42.903Z,15.30
2019-02-12T11:51:08.689Z,12.73
2019-02-12T11:53:34.501Z,11.97
2019-02-12T11:56:00.296Z,12.43
2019-02-12T11:58:26.061Z,11.77
2019-02-12T12:03:59.059Z,13.03
2019-02-12T12:06:24.805Z,10.60
2019-02-12T12:08:50.564Z,11.10
2019-02-12T12:11:16.340Z,12.63
2019-02-12T12:13:42.122Z,12.07
2019-02-12T12:16:07.904Z,9.33
2019-02-12T12:18:33.736Z,7.43
2019-02-12T12:20:59.486Z,9.47
2019-02-12T12:23:25.279Z,11.13
2019-02-12T12:25:51.077Z,6.97
2019-02-12T12:28:16.915Z,11.37
2019-02-12T12:30:42.739Z,8.53
2019-02-12T12:33:08.511Z,6.53
2019-02-12T12:35:34.316Z,8.03
2019-02-12T12:38:00.069Z,8.47
2019-02-12T12:40:25.825Z,12.53
2019-02-12T12:42:51.576Z,7.87
2019-02-12T12:45:17.347Z,8.80
2019-02-12T12:47:43.089Z,9.90
2019-02-12T12:50:50.541Z,9.87
2019-02-12T12:53:16.297Z,8.07
2019-02-12T12:55:42.057Z,11.63
2019-02-12T12:58:07.825Z,9.23
2019-02-12T13:00:33.595Z,7.53
2019-02-12T13:02:59.340Z,7.57
2019-02-12T13:05:25.102Z,9.63
2019-02-12T13:07:50.857Z,9.57
2019-02-12T13:10:16.622Z,9.43
2019-02-12T13:12:42.367Z,6.00
2019-02-12T13:15:49.819Z,4.23
2019-02-12T13:18:15.572Z,4.67
2019-02-12T13:20:41.332Z,7.87
2019-02-12T13:23:07.085Z,6.70
2019-02-12T13:25:32.850Z,6.13
2019-02-12T13:27:58.620Z,6.40
2019-02-12T13:30:24.410Z,7.00
2019-02-12T13:32:50.160Z,7.47
2019-02-12T13:35:15.963Z,8.23
2019-02-12T13:37:41.692Z,7.07
2019-02-12T13:40:49.211Z,8.97
2019-02-12T13:43:15.048Z,9.77
2019-02-12T13:45:40.794Z,9.27
2019-02-12T13:48:06.665Z,10.47
2019-02-12T13:50:32.457Z,11.83
2019-02-12T13:52:58.225Z,9.37
2019-02-12T13:55:24.094Z,11.53
2019-02-12T13:57:49.847Z,8.33
2019-02-12T14:00:35.500Z,8.50
2019-02-12T14:03:01.288Z,10.30
2019-02-12T14:05:27.063Z,8.63
2019-02-12T14:07:52.830Z,7.47
2019-02-12T14:10:18.602Z,6.93
2019-02-12T14:12:44.353Z,7.57
2019-02-12T14:15:51.827Z,5.70
2019-02-12T14:18:17.580Z,6.43
2019-02-12T14:20:43.341Z,7.40
2019-02-12T14:23:09.084Z,9.07
2019-02-12T14:25:34.868Z,4.97
2019-02-12T14:28:00.637Z,6.63
2019-02-12T14:30:26.430Z,8.20
2019-02-12T14:32:52.183Z,9.27
2019-02-12T14:35:17.947Z,6.60
2019-02-12T14:37:43.719Z,7.37
2019-02-12T14:40:51.193Z,6.53
2019-02-12T14:43:16.944Z,5.90
2019-02-12T14:45:42.736Z,11.10
2019-02-12T14:48:08.499Z,7.57
2019-02-12T14:50:34.289Z,7.17
2019-02-12T14:53:00.035Z,8.47
2019-02-12T14:55:33.385Z,7.23
2019-02-12T14:57:53.454Z,6.73
2019-02-12T15:00:19.306Z,6.30
2019-02-12T15:02:45.076Z,8.10
2019-02-12T15:05:10.833Z,9.60
2019-02-12T15:07:36.598Z,7.50
2019-02-12T15:10:44.045Z,8.70
2019-02-12T15:13:09.797Z,9.23
2019-02-12T15:15:35.557Z,6.63
2019-02-12T15:18:01.308Z,9.60
2019-02-12T15:20:27.109Z,10.40
2019-02-12T15:22:52.890Z,10.07
2019-02-12T15:25:18.637Z,10.70
2019-02-12T15:27:44.419Z,9.13
2019-02-12T15:30:51.886Z,14.33
2019-02-12T15:33:17.639Z,11.57
2019-02-12T15:35:43.384Z,10.87
2019-02-12T15:38:09.143Z,8.20
2019-02-12T15:40:34.908Z,9.97
2019-02-12T15:43:00.679Z,9.00
2019-02-12T15:45:26.435Z,8.07
2019-02-12T15:47:52.220Z,10.20
2019-02-12T15:50:17.986Z,11.10
2019-02-12T15:52:43.761Z,10.93
2019-02-12T15:55:51.670Z,7.97
2019-02-12T15:58:17.454Z,9.83
2019-02-12T16:00:43.446Z,12.20
2019-02-12T16:03:10.875Z,11.03
2019-02-12T16:05:36.658Z,10.80
2019-02-12T16:08:02.433Z,10.20
2019-02-12T16:10:28.192Z,10.27
2019-02-12T16:12:53.970Z,13.37
2019-02-12T16:15:21.925Z,9.13
2019-02-12T16:17:47.422Z,9.70
2019-02-12T16:20:13.168Z,8.43
2019-02-12T16:22:38.948Z,13.07
2019-02-12T16:25:46.375Z,11.80
2019-02-12T16:28:12.144Z,9.47
2019-02-12T16:30:37.919Z,15.40
2019-02-12T16:33:03.701Z,11.27
2019-02-12T16:35:29.447Z,12.13
2019-02-12T16:37:55.214Z,9.63
2019-02-12T16:40:20.969Z,11.00
2019-02-12T16:42:46.757Z,15.27
2019-02-12T16:45:54.186Z,11.13
2019-02-12T16:48:19.951Z,13.27
2019-02-12T16:50:45.705Z,10.60
2019-02-12T16:53:11.493Z,12.17
2019-02-12T16:55:37.243Z,12.33
2019-02-12T16:58:03.006Z,10.97
2019-02-12T17:00:28.766Z,15.43
2019-02-12T17:02:54.535Z,15.37
2019-02-12T17:05:20.290Z,11.97
2019-02-12T17:07:46.072Z,13.47
2019-02-12T17:10:53.506Z,14.30
2019-02-12T17:13:19.273Z,12.53
2019-02-12T17:15:45.024Z,15.70
2019-02-12T17:18:10.788Z,15.17
2019-02-12T17:20:36.566Z,15.07
2019-02-12T17:23:02.351Z,15.47
2019-02-12T17:25:28.096Z,14.30
2019-02-12T17:27:53.862Z,17.67
2019-02-12T17:30:19.642Z,16.63
2019-02-12T17:32:45.413Z,16.30
2019-02-12T17:35:11.199Z,15.53
2019-02-12T17:37:36.945Z,18.80
2019-02-12T17:40:44.397Z,14.40
2019-02-12T17:43:10.167Z,17.03
2019-02-12T17:45:35.917Z,15.73
2019-02-12T17:48:01.681Z,19.07
2019-02-12T17:50:27.441Z,17.03
2019-02-12T17:52:53.206Z,16.77
2019-02-12T17:55:18.948Z,14.50
2019-02-12T17:57:44.713Z,13.93
2019-02-12T18:03:03.972Z,13.83
2019-02-12T18:05:29.750Z,17.03
2019-02-12T18:07:55.516Z,17.00
2019-02-12T18:10:21.352Z,14.30
2019-02-12T18:12:47.104Z,16.13
2019-02-12T18:15:54.545Z,15.60
2019-02-12T18:18:20.302Z,19.77
2019-02-12T18:20:46.059Z,17.87
2019-02-12T18:23:11.819Z,15.60
2019-02-12T18:25:37.566Z,16.50
2019-02-12T18:28:03.313Z,17.30
2019-02-12T18:30:29.100Z,18.40
2019-02-12T18:32:54.872Z,10.70
2019-02-12T18:35:20.737Z,14.73
2019-02-12T18:37:46.495Z,13.53
2019-02-12T18:40:53.933Z,11.53
2019-02-12T18:43:19.796Z,15.97
2019-02-12T18:45:45.566Z,15.67
2019-02-12T18:48:11.322Z,19.37
2019-02-12T18:50:37.081Z,15.93
2019-02-12T18:53:02.835Z,15.90
2019-02-12T18:55:28.599Z,15.53
2019-02-12T18:57:54.355Z,14.73
2019-02-12T19:01:01.811Z,12.60
2019-02-12T19:03:27.568Z,14.93
2019-02-12T19:11:48.575Z,17.37
2019-02-12T19:14:08.215Z,16.73
2019-02-12T19:16:33.997Z,12.03
2019-02-12T19:18:59.751Z,16.17
2019-02-12T19:21:25.515Z,14.33
2019-02-12T19:23:51.272Z,16.57
2019-02-12T19:26:17.028Z,14.40
2019-02-12T19:28:42.795Z,19.77
2019-02-12T19:31:08.577Z,15.07
2019-02-12T19:33:34.329Z,21.50
2019-02-12T19:36:00.094Z,19.17
2019-02-12T19:38:25.849Z,13.60
2019-02-12T19:40:51.604Z,15.97
2019-02-12T19:43:17.348Z,15.57
2019-02-12T19:45:43.108Z,21.37
2019-02-12T19:48:08.863Z,17.13
2019-02-12T19:50:34.628Z,16.50
2019-02-12T19:53:00.409Z,19.80
2019-02-12T19:55:26.316Z,17.20
2019-02-12T19:57:52.064Z,17.03
2019-02-12T20:03:05.125Z,14.50
2019-02-12T20:05:30.892Z,19.30
2019-02-12T20:07:56.683Z,21.73
2019-02-12T20:10:22.428Z,18.63
2019-02-12T20:12:48.214Z,20.07
2019-02-12T20:15:33.847Z,18.70
2019-02-12T20:17:59.615Z,25.07
2019-02-12T20:20:25.371Z,18.67
2019-02-12T20:22:51.134Z,20.67
2019-02-12T20:25:16.917Z,22.37
2019-02-12T20:27:42.711Z,21.73
2019-02-12T20:30:28.353Z,18.90
2019-02-12T20:32:54.131Z,17.07
2019-02-12T20:36:01.569Z,18.23
2019-02-12T20:38:27.328Z,21.53
2019-02-12T20:40:53.084Z,20.27
2019-02-12T20:43:18.849Z,20.97
2019-02-12T20:45:44.602Z,20.27
2019-02-12T20:48:10.366Z,18.53
2019-02-12T20:50:36.118Z,18.20
2019-02-12T20:53:01.877Z,20.10
2019-02-12T20:55:27.646Z,22.80
2019-02-12T20:57:53.413Z,19.13
2019-02-12T21:01:00.963Z,23.70
2019-02-12T21:03:27.050Z,21.30
2019-02-12T21:05:53.111Z,18.00
2019-02-12T21:08:18.879Z,17.87
2019-02-12T21:10:44.629Z,17.30
2019-02-12T21:13:10.720Z,16.20
2019-02-12T21:15:36.774Z,21.23
2019-02-12T21:18:02.558Z,17.93
2019-02-12T21:20:28.352Z,17.70
2019-02-12T21:23:35.797Z,15.83
2019-02-12T21:26:01.811Z,18.83
2019-02-12T21:28:27.572Z,18.33
2019-02-12T21:30:53.343Z,19.53
2019-02-12T21:33:19.101Z,17.70
2019-02-12T21:35:44.856Z,18.17
2019-02-12T21:41:26.274Z,15.90
2019-02-12T21:43:52.391Z,18.80
2019-02-12T21:46:18.142Z,17.13
2019-02-12T21:48:44.360Z,17.67
2019-02-12T21:51:10.346Z,15.83
2019-02-12T21:53:56.192Z,16.00
2019-02-12T21:56:21.940Z,16.50
2019-02-12T21:58:47.688Z,16.60
2019-02-12T22:01:13.444Z,18.27
2019-02-12T22:03:39.205Z,16.57
2019-02-12T22:06:04.982Z,15.63
2019-02-12T22:08:30.743Z,19.23
2019-02-12T22:10:56.524Z,17.20
2019-02-12T22:13:22.280Z,17.50
2019-02-12T22:15:48.065Z,13.93
2019-02-12T22:18:13.814Z,13.73
2019-02-12T22:20:39.568Z,17.33
2019-02-12T22:23:05.320Z,17.43
2019-02-12T22:25:31.082Z,18.50
2019-02-12T22:27:56.858Z,16.23
2019-02-12T22:33:35.850Z,18.43
2019-02-12T22:36:01.608Z,17.70
2019-02-12T22:38:27.351Z,15.33
2019-02-12T22:40:59.960Z,18.73
2019-02-12T22:43:25.727Z,15.70
2019-02-12T22:45:51.525Z,18.03
2019-02-12T22:48:17.264Z,17.47
2019-02-12T22:50:43.027Z,19.10
2019-02-12T22:53:08.784Z,18.33
2019-02-12T22:55:34.604Z,17.60
2019-02-12T22:58:00.346Z,20.67
2019-02-12T23:03:40.315Z,18.60
2019-02-12T23:08:44.189Z,16.63
2019-02-12T23:11:09.948Z,16.23
2019-02-12T23:13:35.692Z,18.53
2019-02-12T23:16:01.558Z,18.40
2019-02-12T23:21:34.571Z,20.23
2019-02-12T23:24:00.343Z,18.07
2019-02-12T23:26:26.136Z,19.43
2019-02-12T23:28:54.614Z,18.00
2019-02-12T23:31:20.387Z,20.67
2019-02-12T23:33:46.143Z,19.20
2019-02-12T23:36:12.136Z,17.10
2019-02-12T23:41:23.917Z,22.50
2019-02-12T23:43:49.668Z,25.07
2019-02-12T23:49:28.711Z,20.53
2019-02-12T23:51:54.474Z,18.87
2019-02-12T23:54:20.263Z,19.77
2019-02-12T23:56:46.013Z,22.10
